Estación Meteorológica Peña el Pijo (Robertgarden) [ 04/22/18 23:37:32 CEST ]

Fecha Hora Presion(HPa) Temp (°C) Humedad % Rocio (°C) Viento ( m/s) Direccion Lluvia 1Hora(mm) Lluvia 24H(mm) LLuvia Total(mm)
2018-Feb-17 01:01:43 1011.700 5.3 79 1.9         82.36
2018-Feb-17 02:04:13 1011.200 4.1 81 1.2         82.36
2018-Feb-17 03:01:55 1011.000 4.2 82 1.4         82.36
2018-Feb-17 04:01:56 1010.500 4.8 83 2.1         82.36
2018-Feb-17 05:01:40 1010.200 3.9 83 1.3         82.36
2018-Feb-17 06:01:58 1010.400 4.3 84 1.8         82.36
2018-Feb-17 07:01:50 1010.600 3.5 83 0.9         82.36
2018-Feb-17 08:01:48 1010.900 2.8 84 0.3         82.36
2018-Feb-17 09:01:52 1011.000 3.6 85 1.3         82.36
2018-Feb-17 10:01:59 1010.900 10.8 77 6.9         82.36
2018-Feb-17 11:01:46 1010.900 14.7 51 4.7         82.36
2018-Feb-17 12:02:16 1010.700 16.6 38 2.1         82.36
2018-Feb-17 13:01:56 1009.900 16.6 36 1.3         82.36
2018-Feb-17 14:01:37 1009.400 18.2 32 1.2 2.8 N     82.36
2018-Feb-17 15:01:53 1008.900 18.4 32 1.4         82.36
2018-Feb-17 16:01:32 1008.800 18.4 28 -0.6         82.36
2018-Feb-17 17:01:45 1008.900 16.5 32 -0.3         82.36
2018-Feb-17 18:01:42 1009.500 13.5 44 1.4         82.36
2018-Feb-17 19:01:57 1010.100 11.0 53 1.8         82.36
2018-Feb-17 20:01:55 1010.600 8.1 59 0.5         82.36
2018-Feb-17 21:01:42 1010.900 5.8 65 -0.3         82.36
2018-Feb-17 22:02:02 1011.200 4.9 69 -0.3         82.36
2018-Feb-17 23:01:50 1011.300 3.8 73 -0.6         82.36

Temperatura Máxima:18°    Temperatura Mínima:
Presión Máxima:1011.700 Hpa    Presión Mínima:1008.800 Hpa


Volver